aviador You're here:

CYUY Decoded Metar

ROUYN in QC, CANADA
Report Time2018-07-19 13:00:00
UTC Time2018-07-19 13:16:25
Flight Rules vfr VFR
Wind230° at 10 Gusting to 18 kt
W.Decomp.*RWY 26: 9.6 kt HW 2.9 kt LCW
W.Rank230° ranks 4
Current wind is above 230° avg. (8.4)
Visibility9999 m
Phenomena:Smoke
Clouds:Scattered 140 Hf
Broken 230 Hf
Expected CloudBase > 2,400 ft AGL from Temp-Dew spread
Ceiling23,000 ft
Temp18°C (ISA +5)
Dew Point12°C (68% RH)
AAT15.0°C
QNH1015 hPa
Density Alt1,693 ft
Elevation988 ft
Report Wrong Elevation
Raw Report
CYUY 191300Z 23010G18KT 8SM SCT140 BKN230 18/12 A2997 RMK AC4CI2
FU SLP153 DENSITY ALT 1600FT=

Extra information for CYUY:More info

Metar Taf Metar & Taf Last 4 Metars F.Rules Stats Wind Profile Meteogram Temp Stats Airport Information Weather charts Add Link Nearby VenuesMetar ALERT Operation Metar Decoded Social comments